Bellevue, WA (98004)

11:48 AM PDT on August 27, 2016 (GMT -0700)
Northwest Bellevue | | Change Station

Elev 0 ft 47.62 °N, 122.21 °W | Updated 5 minutes ago

Overcast
Overcast
64.2 °F
Feels Like 64.2 °F
N
3.1
Wind Variable Wind from South
Gusts 8.7 mph

Today
High -- | Low -- °F
--% Chance of Precip.
Yesterday
High -- | Low -- °F
Precip. -- in
Pressure 29.87 in
Visibility 10.0 miles
Clouds Overcast 1900 ft
Dew Point 57 °F
Humidity 76%
Rainfall 0.00 in
Snow Depth Not available.
6:21 AM 7:57 PM
Waning Crescent, 22% visible
METAR KBFI 271753Z 18010KT 10SM OVC019 19/13 A2987 RMK AO2 SLP113 T01890128 53014 $
Pressure 29.87 in
Visibility 10.0 miles
Clouds Overcast 1900 ft
Dew Point 57 °F
Humidity 76%
Rainfall 0.00 in
Snow Depth Not available.
6:21 AM 7:57 PM
Waning Crescent, 22% visible
METAR KBFI 271753Z 18010KT 10SM OVC019 19/13 A2987 RMK AO2 SLP113 T01890128 53014 $

10-Day Weather Forecast

Almanac

Astronomy

Aug. 27, 2016 Rise Set
Actual Time
Civil Twilight
Nautical Twilight
Astronomical Twilight
Moon
Length of Visible Light
Length of Day
Tomorrow will be .
, % of the Moon is Illuminated

Today's Extremes

State Highs State Lows

Community

WunderPhotos

Upload Photos

1,935,399 photos uploaded!

WunderBlog® & News

Nearby

Air Quality

  Air Quality AQ Index Pollutant
Not available.

Snow Depth

Station Depth Elevation

Earthquake Activity

City Distance Mag. Time & Date
Minimum magnitude displayed is 2.5.

Coastal Water Temperatures

Place Temperature

Stations

Nearby Weather Stations

Station Location Temp. Windchill Dew Point Humidity Wind Precip. Elev Updated Type
                   

Watches & Warnings

There are currently no watches in effect.